Time,TemperatureF,DewpointF,PressureIn,WindDirection,WindDirectionDegrees,WindSpeedMPH,WindSpeedGustMPH,Humidity,HourlyPrecipIn,Conditions,Clouds,dailyrainin,SoftwareType,DateUTC
2013-02-15 00:02:00,40.0,38.0,30.12,NNW,345,0.0,0.0,94,0.00,,,0.01,,2013-02-15 06:02:00,
2013-02-15 00:11:00,40.0,38.0,30.12,NNW,345,0.0,0.0,94,0.00,,,0.01,,2013-02-15 06:11:00,
2013-02-15 00:22:00,39.0,38.0,30.13,NNW,345,0.0,0.0,96,0.00,,,0.01,,2013-02-15 06:22:00,
2013-02-15 00:32:00,40.0,39.0,30.13,NNW,345,0.0,0.0,96,0.00,,,0.01,,2013-02-15 06:32:00,
2013-02-15 00:42:00,40.0,39.0,30.13,NNW,345,0.0,0.0,96,0.00,,,0.01,,2013-02-15 06:42:00,
2013-02-15 00:52:00,39.0,38.0,30.13,NNW,346,0.0,0.0,96,0.00,,,0.01,,2013-02-15 06:52:00,
2013-02-15 01:01:00,38.0,37.0,30.14,NNW,345,0.0,0.0,96,0.00,,,0.01,,2013-02-15 07:01:00,
2013-02-15 01:11:00,38.0,37.0,30.14,NNW,345,0.0,0.0,96,0.00,,,0.01,,2013-02-15 07:11:00,
2013-02-15 01:21:00,38.0,37.0,30.14,NNW,345,0.0,0.0,97,0.00,,,0.01,,2013-02-15 07:21:00,
2013-02-15 01:31:00,38.0,37.0,30.14,NNW,345,0.0,0.0,97,0.00,,,0.01,,2013-02-15 07:31:00,
2013-02-15 01:42:00,38.0,37.0,30.14,NNW,345,0.0,0.0,97,0.00,,,0.01,,2013-02-15 07:42:00,
2013-02-15 01:52:00,37.0,36.0,30.14,NNW,345,0.0,0.0,98,0.00,,,0.01,,2013-02-15 07:52:00,
2013-02-15 02:01:00,37.0,36.0,30.15,NNW,345,0.0,0.0,98,0.00,,,0.01,,2013-02-15 08:01:00,
2013-02-15 02:11:00,37.0,36.0,30.15,NNW,345,0.0,0.0,98,0.00,,,0.01,,2013-02-15 08:11:00,
2013-02-15 02:21:00,37.0,36.0,30.15,NNW,345,0.0,0.0,98,0.00,,,0.01,,2013-02-15 08:21:00,
2013-02-15 02:32:00,37.0,36.0,30.14,NNW,345,0.0,0.0,98,0.00,,,0.01,,2013-02-15 08:32:00,
2013-02-15 02:42:00,37.0,36.0,30.14,NNW,345,0.0,0.0,98,0.00,,,0.01,,2013-02-15 08:42:00,
2013-02-15 02:52:00,37.0,36.0,30.14,NNW,345,0.0,0.0,98,0.00,,,0.01,,2013-02-15 08:52:00,
2013-02-15 03:01:00,37.0,36.0,30.14,NNW,345,0.0,0.0,98,0.00,,,0.01,,2013-02-15 09:01:00,
2013-02-15 03:12:00,37.0,36.0,30.14,NNW,345,0.0,0.0,98,0.00,,,0.01,,2013-02-15 09:12:00,
2013-02-15 03:21:00,37.0,36.0,30.13,NNW,345,0.0,0.0,98,0.00,,,0.01,,2013-02-15 09:21:00,
2013-02-15 03:32:00,36.0,35.0,30.14,NNW,345,0.0,0.0,98,0.00,,,0.01,,2013-02-15 09:32:00,
2013-02-15 03:42:00,36.0,35.0,30.14,NNW,345,0.0,0.0,98,0.00,,,0.01,,2013-02-15 09:42:00,
2013-02-15 03:52:00,36.0,36.0,30.14,NNW,346,0.0,0.0,99,0.00,,,0.01,,2013-02-15 09:52:00,
2013-02-15 04:01:00,36.0,35.0,30.14,NNW,345,0.0,0.0,98,0.00,,,0.01,,2013-02-15 10:01:00,
2013-02-15 04:11:00,36.0,35.0,30.14,NNW,345,0.0,0.0,98,0.00,,,0.01,,2013-02-15 10:11:00,
2013-02-15 04:21:00,37.0,36.0,30.14,NNW,345,0.0,0.0,98,0.00,,,0.01,,2013-02-15 10:21:00,
2013-02-15 04:31:00,37.0,36.0,30.14,NNW,345,0.0,0.0,98,0.00,,,0.01,,2013-02-15 10:31:00,
2013-02-15 04:41:00,37.0,36.0,30.14,NNW,345,0.0,0.0,98,0.00,,,0.01,,2013-02-15 10:41:00,
2013-02-15 04:52:00,37.0,36.0,30.14,NNW,345,0.0,0.0,97,0.00,,,0.01,,2013-02-15 10:52:00,
2013-02-15 05:01:00,37.0,36.0,30.15,NNW,345,0.0,0.0,98,0.00,,,0.01,,2013-02-15 11:01:00,
2013-02-15 05:11:00,37.0,36.0,30.15,NNW,345,0.0,0.0,98,0.00,,,0.01,,2013-02-15 11:11:00,
2013-02-15 05:22:00,36.0,35.0,30.15,NNW,346,0.0,0.0,98,0.00,,,0.01,,2013-02-15 11:22:00,
2013-02-15 05:32:00,36.0,35.0,30.15,NNW,345,0.0,0.0,98,0.00,,,0.01,,2013-02-15 11:32:00,
2013-02-15 05:42:00,36.0,35.0,30.15,NNW,345,0.0,0.0,98,0.00,,,0.01,,2013-02-15 11:42:00,
2013-02-15 05:52:00,36.0,35.0,30.15,NNW,345,0.0,0.0,98,0.00,,,0.01,,2013-02-15 11:52:00,
2013-02-15 06:01:00,35.0,34.0,30.16,NNW,346,0.0,0.0,98,0.00,,,0.01,,2013-02-15 12:01:00,
2013-02-15 06:11:00,35.0,34.0,30.16,NNW,346,0.0,0.0,98,0.00,,,0.01,,2013-02-15 12:11:00,
2013-02-15 06:21:00,36.0,36.0,30.16,NNW,346,0.0,0.0,99,0.00,,,0.01,,2013-02-15 12:21:00,
2013-02-15 06:32:00,36.0,36.0,30.17,NNW,345,0.0,0.0,99,0.00,,,0.01,,2013-02-15 12:32:00,
2013-02-15 06:42:00,36.0,36.0,30.17,NNW,345,0.0,0.0,99,0.00,,,0.01,,2013-02-15 12:42:00,
2013-02-15 06:52:00,35.0,34.0,30.17,NNW,345,0.0,0.0,98,0.00,,,0.01,,2013-02-15 12:52:00,
2013-02-15 07:02:00,36.0,35.0,30.18,NNW,345,0.0,0.0,98,0.00,,,0.01,,2013-02-15 13:02:00,
2013-02-15 07:11:00,36.0,35.0,30.18,NNW,345,0.0,0.0,98,0.00,,,0.01,,2013-02-15 13:11:00,
2013-02-15 07:22:00,35.0,34.0,30.18,NNW,345,0.0,0.0,98,0.00,,,0.01,,2013-02-15 13:22:00,
2013-02-15 07:32:00,36.0,36.0,30.19,NNW,345,0.0,0.0,99,0.00,,,0.01,,2013-02-15 13:32:00,
2013-02-15 07:42:00,36.0,36.0,30.19,NNW,345,0.0,0.0,99,0.00,,,0.01,,2013-02-15 13:42:00,
2013-02-15 07:52:00,37.0,37.0,30.20,NNW,345,0.0,1.0,99,0.00,,,0.01,,2013-02-15 13:52:00,
2013-02-15 08:01:00,40.0,40.0,30.21,NNW,345,0.0,0.0,99,0.00,,,0.01,,2013-02-15 14:01:00,
2013-02-15 08:11:00,40.0,40.0,30.21,NNW,345,0.0,0.0,99,0.00,,,0.01,,2013-02-15 14:11:00,
2013-02-15 08:21:00,44.0,42.0,30.21,NNW,345,0.0,0.0,93,0.00,,,0.00,,2013-02-15 14:21:00,
2013-02-15 08:32:00,46.0,41.0,30.21,NNW,345,0.0,0.0,84,0.00,,,0.00,,2013-02-15 14:32:00,
2013-02-15 08:52:00,47.0,41.0,30.22,North,11,0.0,1.0,80,0.00,,,0.00,,2013-02-15 14:52:00,
2013-02-15 09:01:00,50.0,43.0,30.22,ESE,110,0.0,1.0,76,0.00,,,0.00,,2013-02-15 15:01:00,
2013-02-15 09:21:00,52.0,43.0,30.22,North,4,0.0,1.0,72,0.00,,,0.00,,2013-02-15 15:21:00,
2013-02-15 09:52:00,54.0,42.0,30.21,ESE,108,0.0,2.0,64,0.00,,,0.00,,2013-02-15 15:52:00,
2013-02-15 10:01:00,55.0,43.0,30.22,SSE,152,0.0,1.0,64,0.00,,,0.00,,2013-02-15 16:01:00,
2013-02-15 10:11:00,55.0,43.0,30.22,SSE,152,0.0,1.0,64,0.00,,,0.00,,2013-02-15 16:11:00,
2013-02-15 10:22:00,57.0,43.0,30.21,NE,43,1.0,2.0,59,0.00,,,0.00,,2013-02-15 16:22:00,
2013-02-15 10:32:00,58.0,43.0,30.22,WNW,300,2.0,5.0,58,0.00,,,0.00,,2013-02-15 16:32:00,
2013-02-15 10:42:00,58.0,43.0,30.22,WNW,300,2.0,5.0,58,0.00,,,0.00,,2013-02-15 16:42:00,
2013-02-15 10:51:00,59.0,42.0,30.21,WSW,241,0.0,5.0,54,0.00,,,0.00,,2013-02-15 16:51:00,
2013-02-15 11:01:00,60.0,42.0,30.21,North,11,2.0,6.0,52,0.00,,,0.00,,2013-02-15 17:01:00,
2013-02-15 11:11:00,60.0,42.0,30.21,North,11,2.0,6.0,52,0.00,,,0.00,,2013-02-15 17:11:00,
2013-02-15 11:21:00,61.0,42.0,30.21,North,1,1.0,4.0,50,0.00,,,0.00,,2013-02-15 17:21:00,
2013-02-15 11:32:00,61.0,42.0,30.21,West,280,3.0,5.0,49,0.00,,,0.00,,2013-02-15 17:32:00,
2013-02-15 11:42:00,61.0,42.0,30.21,West,280,3.0,5.0,49,0.00,,,0.00,,2013-02-15 17:42:00,
2013-02-15 11:52:00,61.0,41.0,30.20,NW,306,1.0,6.0,48,0.00,,,0.00,,2013-02-15 17:52:00,
2013-02-15 12:01:00,62.0,43.0,30.19,NNW,330,2.0,4.0,49,0.00,,,0.00,,2013-02-15 18:01:00,
2013-02-15 12:11:00,62.0,43.0,30.19,NNW,330,2.0,4.0,49,0.00,,,0.00,,2013-02-15 18:11:00,
2013-02-15 12:21:00,62.0,40.0,30.18,NNW,332,2.0,6.0,44,0.00,,,0.00,,2013-02-15 18:21:00,
2013-02-15 12:32:00,63.0,41.0,30.17,NE,43,2.0,7.0,45,0.00,,,0.00,,2013-02-15 18:32:00,
2013-02-15 12:42:00,63.0,41.0,30.17,NE,43,2.0,7.0,45,0.00,,,0.00,,2013-02-15 18:42:00,
2013-02-15 12:52:00,63.0,40.0,30.16,ENE,58,1.0,5.0,42,0.00,,,0.00,,2013-02-15 18:52:00,
2013-02-15 13:01:00,64.0,40.0,30.16,NNW,339,2.0,6.0,41,0.00,,,0.00,,2013-02-15 19:01:00,
2013-02-15 13:11:00,64.0,40.0,30.16,NNW,339,2.0,6.0,41,0.00,,,0.00,,2013-02-15 19:11:00,
2013-02-15 13:22:00,64.0,41.0,30.15,East,90,1.0,7.0,43,0.00,,,0.00,,2013-02-15 19:22:00,
2013-02-15 13:32:00,64.0,41.0,30.15,East,90,1.0,7.0,43,0.00,,,0.00,,2013-02-15 19:32:00,
2013-02-15 13:41:00,64.0,41.0,30.15,East,90,1.0,7.0,43,0.00,,,0.00,,2013-02-15 19:41:00,
2013-02-15 13:52:00,64.0,39.0,30.14,NNE,21,1.0,7.0,40,0.00,,,0.00,,2013-02-15 19:52:00,
2013-02-15 14:01:00,64.0,40.0,30.14,NNW,327,1.0,7.0,42,0.00,,,0.00,,2013-02-15 20:01:00,
2013-02-15 14:11:00,64.0,40.0,30.14,NNW,327,1.0,7.0,42,0.00,,,0.00,,2013-02-15 20:11:00,
2013-02-15 14:21:00,65.0,40.0,30.13,NE,37,1.0,4.0,40,0.00,,,0.00,,2013-02-15 20:21:00,
2013-02-15 14:32:00,65.0,39.0,30.12,West,280,2.0,7.0,39,0.00,,,0.00,,2013-02-15 20:32:00,
2013-02-15 14:42:00,65.0,39.0,30.12,West,280,2.0,7.0,39,0.00,,,0.00,,2013-02-15 20:42:00,
2013-02-15 14:52:00,66.0,40.0,30.12,NNW,330,2.0,4.0,39,0.00,,,0.00,,2013-02-15 20:52:00,
2013-02-15 15:02:00,65.0,39.0,30.12,WNW,295,0.0,7.0,39,0.00,,,0.00,,2013-02-15 21:02:00,
2013-02-15 15:11:00,65.0,39.0,30.12,WNW,295,0.0,7.0,39,0.00,,,0.00,,2013-02-15 21:11:00,
2013-02-15 15:21:00,65.0,39.0,30.11,North,8,3.0,7.0,39,0.00,,,0.00,,2013-02-15 21:21:00,
2013-02-15 15:32:00,65.0,38.0,30.11,NW,314,1.0,4.0,37,0.00,,,0.00,,2013-02-15 21:32:00,
2013-02-15 15:42:00,65.0,38.0,30.11,NW,314,1.0,4.0,37,0.00,,,0.00,,2013-02-15 21:42:00,
2013-02-15 15:52:00,65.0,39.0,30.11,North,6,2.0,7.0,38,0.00,,,0.00,,2013-02-15 21:52:00,
2013-02-15 16:02:00,64.0,37.0,30.11,NNW,328,1.0,5.0,36,0.00,,,0.00,,2013-02-15 22:02:00,
2013-02-15 16:11:00,64.0,37.0,30.11,NNW,328,1.0,5.0,36,0.00,,,0.00,,2013-02-15 22:11:00,
2013-02-15 16:21:00,64.0,37.0,30.11,NNW,340,2.0,6.0,37,0.00,,,0.00,,2013-02-15 22:21:00,
2013-02-15 16:31:00,63.0,39.0,30.12,NNE,20,1.0,5.0,41,0.00,,,0.00,,2013-02-15 22:31:00,
2013-02-15 16:41:00,63.0,39.0,30.12,NNE,20,1.0,5.0,41,0.00,,,0.00,,2013-02-15 22:41:00,
2013-02-15 16:51:00,62.0,38.0,30.12,NNW,328,2.0,5.0,41,0.00,,,0.00,,2013-02-15 22:51:00,
2013-02-15 17:02:00,61.0,38.0,30.12,NW,321,1.0,5.0,42,0.00,,,0.00,,2013-02-15 23:02:00,
2013-02-15 17:11:00,61.0,38.0,30.12,NW,321,1.0,5.0,42,0.00,,,0.00,,2013-02-15 23:11:00,
2013-02-15 17:21:00,61.0,38.0,30.12,NW,314,1.0,5.0,43,0.00,,,0.00,,2013-02-15 23:21:00,
2013-02-15 17:31:00,61.0,38.0,30.12,NW,314,1.0,5.0,43,0.00,,,0.00,,2013-02-15 23:31:00,
2013-02-15 17:42:00,61.0,38.0,30.12,NW,314,1.0,5.0,43,0.00,,,0.00,,2013-02-15 23:42:00,
2013-02-15 17:52:00,60.0,39.0,30.12,NW,321,1.0,4.0,46,0.00,,,0.00,,2013-02-15 23:52:00,
2013-02-15 18:02:00,59.0,38.0,30.12,NNW,329,1.0,4.0,46,0.00,,,0.00,,2013-02-16 00:02:00,
2013-02-15 18:11:00,59.0,38.0,30.12,NNW,329,1.0,4.0,46,0.00,,,0.00,,2013-02-16 00:11:00,
2013-02-15 18:21:00,58.0,39.0,30.12,NW,322,1.0,3.0,49,0.00,,,0.00,,2013-02-16 00:21:00,
2013-02-15 18:32:00,57.0,40.0,30.13,NW,321,1.0,4.0,52,0.00,,,0.00,,2013-02-16 00:32:00,
2013-02-15 18:41:00,57.0,40.0,30.13,NW,321,1.0,4.0,52,0.00,,,0.00,,2013-02-16 00:41:00,
2013-02-15 18:51:00,56.0,39.0,30.14,NW,304,2.0,6.0,53,0.00,,,0.00,,2013-02-16 00:51:00,
2013-02-15 19:02:00,56.0,39.0,30.15,NNW,332,2.0,7.0,53,0.00,,,0.00,,2013-02-16 01:02:00,
2013-02-15 19:11:00,56.0,39.0,30.15,NNW,332,2.0,7.0,53,0.00,,,0.00,,2013-02-16 01:11:00,
2013-02-15 19:21:00,55.0,40.0,30.15,NNW,327,1.0,5.0,56,0.00,,,0.00,,2013-02-16 01:21:00,
2013-02-15 19:32:00,55.0,40.0,30.15,NNW,327,1.0,5.0,56,0.00,,,0.00,,2013-02-16 01:32:00,
2013-02-15 19:42:00,55.0,40.0,30.15,NNW,327,1.0,5.0,56,0.00,,,0.00,,2013-02-16 01:42:00,
2013-02-15 19:51:00,53.0,39.0,30.16,NW,323,1.0,2.0,59,0.00,,,0.00,,2013-02-16 01:51:00,
2013-02-15 20:01:00,53.0,40.0,30.17,NW,316,0.0,3.0,61,0.00,,,0.00,,2013-02-16 02:01:00,
2013-02-15 20:11:00,53.0,40.0,30.17,NW,316,0.0,3.0,61,0.00,,,0.00,,2013-02-16 02:11:00,
2013-02-15 20:21:00,52.0,39.0,30.18,NNW,333,1.0,6.0,62,0.00,,,0.00,,2013-02-16 02:21:00,
2013-02-15 20:32:00,52.0,40.0,30.19,NW,324,1.0,4.0,64,0.00,,,0.00,,2013-02-16 02:32:00,
2013-02-15 20:42:00,52.0,40.0,30.19,NW,324,1.0,4.0,64,0.00,,,0.00,,2013-02-16 02:42:00,
2013-02-15 20:52:00,52.0,41.0,30.19,NW,325,1.0,3.0,66,0.00,,,0.00,,2013-02-16 02:52:00,
2013-02-15 21:01:00,51.0,41.0,30.20,NW,315,1.0,5.0,68,0.00,,,0.00,,2013-02-16 03:01:00,
2013-02-15 21:11:00,51.0,41.0,30.20,NW,315,1.0,5.0,68,0.00,,,0.00,,2013-02-16 03:11:00,
2013-02-15 21:21:00,51.0,42.0,30.20,North,353,1.0,4.0,70,0.00,,,0.00,,2013-02-16 03:21:00,
2013-02-15 21:32:00,51.0,42.0,30.21,WNW,294,1.0,5.0,70,0.00,,,0.00,,2013-02-16 03:32:00,
2013-02-15 21:41:00,51.0,42.0,30.21,WNW,294,1.0,5.0,70,0.00,,,0.00,,2013-02-16 03:41:00,
2013-02-15 21:52:00,51.0,42.0,30.21,NW,322,1.0,5.0,70,0.00,,,0.00,,2013-02-16 03:52:00,
2013-02-15 22:01:00,51.0,42.0,30.21,NW,322,1.0,5.0,70,0.00,,,0.00,,2013-02-16 04:01:00,
2013-02-15 22:11:00,51.0,42.0,30.21,NW,322,1.0,5.0,70,0.00,,,0.00,,2013-02-16 04:11:00,
2013-02-15 22:21:00,50.0,41.0,30.21,NW,322,2.0,6.0,72,0.00,,,0.00,,2013-02-16 04:21:00,
2013-02-15 22:32:00,50.0,42.0,30.22,NNW,329,1.0,5.0,73,0.00,,,0.00,,2013-02-16 04:32:00,
2013-02-15 22:42:00,50.0,42.0,30.22,NNW,329,1.0,5.0,73,0.00,,,0.00,,2013-02-16 04:42:00,
2013-02-15 22:51:00,50.0,42.0,30.22,NNW,342,1.0,4.0,73,0.00,,,0.00,,2013-02-16 04:51:00,
2013-02-15 23:01:00,49.0,41.0,30.22,NW,311,1.0,3.0,74,0.00,,,0.00,,2013-02-16 05:01:00,
2013-02-15 23:12:00,49.0,41.0,30.22,NW,311,1.0,3.0,74,0.00,,,0.00,,2013-02-16 05:12:00,
2013-02-15 23:22:00,49.0,41.0,30.22,NW,316,0.0,3.0,75,0.00,,,0.00,,2013-02-16 05:22:00,
2013-02-15 23:32:00,48.0,40.0,30.22,NW,314,0.0,3.0,75,0.00,,,0.00,,2013-02-16 05:32:00,
2013-02-15 23:42:00,48.0,40.0,30.22,NW,314,0.0,3.0,75,0.00,,,0.00,,2013-02-16 05:42:00,
2013-02-15 23:52:00,48.0,41.0,30.22,NNW,328,0.0,1.0,76,0.00,,,0.00,,2013-02-16 05:52:00,